createdAt,value
2019-02-26T00:02:02.730Z,5.45
2019-02-26T00:04:34.409Z,5.42
2019-02-26T00:07:03.263Z,5.39
2019-02-26T00:09:35.198Z,5.36
2019-02-26T00:12:04.156Z,5.32
2019-02-26T00:14:33.499Z,5.30
2019-02-26T00:17:06.219Z,5.24
2019-02-26T00:19:33.878Z,5.24
2019-02-26T00:22:03.205Z,5.19
2019-02-26T00:24:35.321Z,5.11
2019-02-26T00:27:05.553Z,5.08
2019-02-26T00:29:35.085Z,5.02
2019-02-26T00:32:04.648Z,5.04
2019-02-26T00:34:34.671Z,5.00
2019-02-26T00:37:06.316Z,4.95
2019-02-26T00:39:36.201Z,4.91
2019-02-26T00:42:07.372Z,4.89
2019-02-26T00:44:37.395Z,4.85
2019-02-26T00:47:08.858Z,4.81
2019-02-26T00:49:38.007Z,4.82
2019-02-26T00:52:08.714Z,4.82
2019-02-26T00:54:38.397Z,4.81
2019-02-26T00:57:08.722Z,4.81
2019-02-26T00:59:41.059Z,4.80
2019-02-26T01:02:09.862Z,4.77
2019-02-26T01:04:41.365Z,4.78
2019-02-26T01:07:10.466Z,4.77
2019-02-26T01:09:39.817Z,4.76
2019-02-26T01:12:11.340Z,4.81
2019-02-26T01:14:41.307Z,4.79
2019-02-26T01:17:12.597Z,4.79
2019-02-26T01:19:43.055Z,4.75
2019-02-26T01:22:12.639Z,4.69
2019-02-26T01:24:41.972Z,4.66
2019-02-26T01:27:12.301Z,4.65
2019-02-26T01:29:41.636Z,4.67
2019-02-26T01:32:13.196Z,4.66
2019-02-26T01:34:42.673Z,4.65
2019-02-26T01:37:13.297Z,4.66
2019-02-26T01:39:44.683Z,4.59
2019-02-26T01:42:17.371Z,4.53
2019-02-26T01:44:44.997Z,4.46
2019-02-26T01:47:14.329Z,4.44
2019-02-26T01:49:44.184Z,4.40
2019-02-26T01:52:15.182Z,4.38
2019-02-26T01:54:45.718Z,4.37
2019-02-26T01:57:17.249Z,4.37
2019-02-26T01:59:47.430Z,4.38
2019-02-26T02:02:18.121Z,4.37
2019-02-26T02:04:48.157Z,4.38
2019-02-26T02:07:18.955Z,4.38
2019-02-26T02:09:50.842Z,4.39
2019-02-26T02:12:19.787Z,4.40
2019-02-26T02:14:49.120Z,4.33
2019-02-26T02:17:18.472Z,4.27
2019-02-26T02:19:47.787Z,4.26
2019-02-26T02:22:19.138Z,4.22
2019-02-26T02:24:50.839Z,4.17
2019-02-26T02:27:22.214Z,4.11
2019-02-26T02:29:52.944Z,4.07
2019-02-26T02:32:24.135Z,4.07
2019-02-26T02:34:52.958Z,4.04
2019-02-26T02:37:24.732Z,4.04
2019-02-26T02:39:53.328Z,4.01
2019-02-26T02:42:22.661Z,3.98
2019-02-26T02:44:52.813Z,3.95
2019-02-26T02:47:25.048Z,3.90
2019-02-26T02:49:53.270Z,3.86
2019-02-26T02:52:24.230Z,3.84
2019-02-26T02:54:53.636Z,3.89
2019-02-26T02:57:24.304Z,3.90
2019-02-26T02:59:56.525Z,3.92
2019-02-26T03:02:25.117Z,3.95
2019-02-26T03:04:54.440Z,3.94
2019-02-26T03:07:26.719Z,3.91
2019-02-26T03:09:55.158Z,3.89
2019-02-26T03:12:24.591Z,3.87
2019-02-26T03:14:56.236Z,3.86
2019-02-26T03:17:25.327Z,3.79
2019-02-26T03:19:56.041Z,3.75
2019-02-26T03:22:25.809Z,3.74
2019-02-26T03:24:57.477Z,3.72
2019-02-26T03:27:30.569Z,3.70
2019-02-26T03:29:59.157Z,3.64
2019-02-26T03:32:28.182Z,3.60
2019-02-26T03:35:02.094Z,3.56
2019-02-26T03:37:29.350Z,3.49
2019-02-26T03:40:00.822Z,3.47
2019-02-26T03:42:33.249Z,3.44
2019-02-26T03:45:02.950Z,3.43
2019-02-26T03:47:34.691Z,3.42
2019-02-26T03:50:08.691Z,3.39
2019-02-26T03:52:37.281Z,3.35
2019-02-26T03:55:09.505Z,3.32
2019-02-26T03:57:43.640Z,3.32
2019-02-26T04:00:14.920Z,3.30
2019-02-26T04:02:47.708Z,3.28
2019-02-26T04:05:14.875Z,3.23
2019-02-26T04:07:44.247Z,3.19
2019-02-26T04:10:14.014Z,3.20
2019-02-26T04:12:45.011Z,3.14
2019-02-26T04:15:16.009Z,3.12
2019-02-26T04:17:45.421Z,3.09
2019-02-26T04:20:15.985Z,3.05
2019-02-26T04:22:47.087Z,3.03
2019-02-26T04:25:35.472Z,3.07
2019-02-26T04:28:11.480Z,3.05
2019-02-26T04:30:59.120Z,3.02
2019-02-26T04:33:46.628Z,3.01
2019-02-26T04:36:24.880Z,2.94
2019-02-26T04:39:19.024Z,2.89
2019-02-26T04:42:11.345Z,2.90
2019-02-26T04:45:09.145Z,2.92
2019-02-26T04:48:01.662Z,2.90
2019-02-26T04:50:33.090Z,2.85
2019-02-26T04:53:05.021Z,2.81
2019-02-26T04:55:36.058Z,2.80
2019-02-26T04:58:04.728Z,2.78
2019-02-26T05:00:37.946Z,2.74
2019-02-26T05:03:07.868Z,2.75
2019-02-26T05:05:37.143Z,2.71
2019-02-26T05:08:09.271Z,2.69
2019-02-26T05:10:37.638Z,2.68
2019-02-26T05:13:09.518Z,2.61
2019-02-26T05:15:38.002Z,2.57
2019-02-26T05:18:07.661Z,2.54
2019-02-26T05:20:39.279Z,2.54
2019-02-26T05:23:08.142Z,2.53
2019-02-26T05:25:39.756Z,2.49
2019-02-26T05:28:10.039Z,2.48
2019-02-26T05:30:40.489Z,2.44
2019-02-26T05:33:10.561Z,2.41
2019-02-26T05:35:40.867Z,2.43
2019-02-26T05:38:10.921Z,2.44
2019-02-26T05:40:42.681Z,2.44
2019-02-26T05:43:11.283Z,2.43
2019-02-26T05:45:40.622Z,2.38
2019-02-26T05:48:10.231Z,2.36
2019-02-26T05:50:41.999Z,2.34
2019-02-26T05:53:13.254Z,2.32
2019-02-26T05:55:44.229Z,2.31
2019-02-26T05:58:15.655Z,2.27
2019-02-26T06:00:43.707Z,2.28
2019-02-26T06:03:16.334Z,2.25
2019-02-26T06:05:46.609Z,2.26
2019-02-26T06:08:15.416Z,2.24
2019-02-26T06:10:44.749Z,2.25
2019-02-26T06:13:15.710Z,2.25
2019-02-26T06:15:46.208Z,2.24
2019-02-26T06:18:15.536Z,2.21
2019-02-26T06:20:44.900Z,2.20
2019-02-26T06:23:14.479Z,2.18
2019-02-26T06:25:43.833Z,2.13
2019-02-26T06:28:15.385Z,2.14
2019-02-26T06:30:44.270Z,2.12
2019-02-26T06:33:13.972Z,2.11
2019-02-26T06:35:44.977Z,2.11
2019-02-26T06:38:14.400Z,2.13
2019-02-26T06:40:47.120Z,2.13
2019-02-26T06:43:14.759Z,2.11
2019-02-26T06:45:45.859Z,2.15
2019-02-26T06:48:19.326Z,2.18
2019-02-26T06:50:46.348Z,2.20
2019-02-26T06:53:16.661Z,2.23
2019-02-26T06:55:46.744Z,2.24
2019-02-26T06:58:20.551Z,2.26
2019-02-26T07:00:54.675Z,2.28
2019-02-26T07:03:24.243Z,2.31
2019-02-26T07:05:51.073Z,2.36
2019-02-26T07:08:21.930Z,2.37
2019-02-26T07:10:52.713Z,2.43
2019-02-26T07:13:22.048Z,2.48
2019-02-26T07:15:51.384Z,2.49
2019-02-26T07:18:20.722Z,2.52
2019-02-26T07:20:52.585Z,2.58
2019-02-26T07:23:21.087Z,2.62
2019-02-26T07:25:50.666Z,2.70
2019-02-26T07:28:20.644Z,2.73
2019-02-26T07:30:51.028Z,2.77
2019-02-26T07:33:20.365Z,2.83
2019-02-26T07:35:49.705Z,2.89
2019-02-26T07:38:21.210Z,2.98
2019-02-26T07:40:51.217Z,3.05
2019-02-26T07:43:22.494Z,3.10
2019-02-26T07:45:51.591Z,3.18
2019-02-26T07:48:23.596Z,3.26
2019-02-26T07:50:51.951Z,3.39
2019-02-26T07:53:22.696Z,3.55
2019-02-26T07:55:52.319Z,3.91
2019-02-26T07:58:21.786Z,4.15
2019-02-26T08:00:52.180Z,4.41
2019-02-26T08:03:24.159Z,4.62
2019-02-26T08:05:52.807Z,4.77
2019-02-26T08:08:22.227Z,4.85
2019-02-26T08:10:53.133Z,4.96
2019-02-26T08:13:24.378Z,5.14
2019-02-26T08:15:55.109Z,5.30
2019-02-26T08:18:24.538Z,5.48
2019-02-26T08:20:55.540Z,5.55
2019-02-26T08:23:26.377Z,5.66
2019-02-26T08:25:57.794Z,5.71
2019-02-26T08:28:26.740Z,5.83
2019-02-26T08:30:57.270Z,5.96
2019-02-26T08:33:27.913Z,6.09
2019-02-26T08:35:57.593Z,6.23
2019-02-26T08:38:29.413Z,6.33
2019-02-26T08:40:57.968Z,6.44
2019-02-26T08:43:27.301Z,6.54
2019-02-26T08:45:56.634Z,6.67
2019-02-26T08:48:27.034Z,6.76
2019-02-26T08:51:00.910Z,6.88
2019-02-26T08:53:28.957Z,7.00
2019-02-26T08:55:59.669Z,7.14
2019-02-26T08:58:29.572Z,7.27
2019-02-26T09:00:58.901Z,7.24
2019-02-26T09:03:28.515Z,7.49
2019-02-26T09:06:10.199Z,7.52
2019-02-26T09:08:30.785Z,7.62
2019-02-26T09:11:00.851Z,7.73
2019-02-26T09:13:33.493Z,7.80
2019-02-26T09:16:03.031Z,8.07
2019-02-26T09:18:37.482Z,8.14
2019-02-26T09:21:04.577Z,8.24
2019-02-26T09:23:33.912Z,8.39
2019-02-26T09:26:05.162Z,8.76
2019-02-26T09:28:34.280Z,8.60
2019-02-26T09:31:04.715Z,8.54
2019-02-26T09:33:35.548Z,8.54
2019-02-26T09:36:05.674Z,8.58
2019-02-26T09:38:35.014Z,8.75
2019-02-26T09:41:04.343Z,8.82
2019-02-26T09:43:33.684Z,9.01
2019-02-26T09:46:04.030Z,9.12
2019-02-26T09:48:35.797Z,9.38
2019-02-26T09:51:07.018Z,9.51
2019-02-26T09:53:36.138Z,9.56
2019-02-26T09:56:05.462Z,9.75
2019-02-26T09:58:34.793Z,9.74
2019-02-26T10:01:06.278Z,9.94
2019-02-26T10:03:37.279Z,9.96
2019-02-26T10:06:06.247Z,10.17
2019-02-26T10:08:35.609Z,10.36
2019-02-26T10:11:05.920Z,10.42
2019-02-26T10:13:35.271Z,10.48
2019-02-26T10:16:06.433Z,10.59
2019-02-26T10:18:36.338Z,10.66
2019-02-26T10:21:08.295Z,10.82
2019-02-26T10:23:37.762Z,10.82
2019-02-26T10:26:08.418Z,10.87
2019-02-26T10:28:40.330Z,10.97
2019-02-26T10:31:09.786Z,11.06
2019-02-26T10:33:41.148Z,11.18
2019-02-26T10:36:11.213Z,11.27
2019-02-26T10:38:41.287Z,11.33
2019-02-26T10:41:10.617Z,11.49
2019-02-26T10:43:40.162Z,11.55
2019-02-26T10:46:09.408Z,11.67
2019-02-26T10:48:41.051Z,11.79
2019-02-26T10:51:09.770Z,11.95
2019-02-26T10:53:39.110Z,12.15
2019-02-26T10:56:08.717Z,12.29
2019-02-26T10:58:38.321Z,12.45
2019-02-26T11:01:09.594Z,12.62
2019-02-26T11:03:41.715Z,12.85
2019-02-26T11:06:12.894Z,13.08
2019-02-26T11:08:41.286Z,13.39
2019-02-26T11:11:13.060Z,13.79
2019-02-26T11:13:43.524Z,14.27
2019-02-26T11:16:17.449Z,14.81
2019-02-26T11:18:44.942Z,15.43
2019-02-26T11:21:15.047Z,16.16
2019-02-26T11:23:46.285Z,16.82
2019-02-26T11:26:18.095Z,17.46
2019-02-26T11:28:48.023Z,18.14
2019-02-26T11:31:20.470Z,18.82
2019-02-26T11:33:48.488Z,19.48
2019-02-26T11:36:17.856Z,20.13
2019-02-26T11:38:47.217Z,20.81
2019-02-26T11:41:16.847Z,21.48
2019-02-26T11:43:46.446Z,22.13
2019-02-26T11:46:15.806Z,22.75
2019-02-26T11:48:47.451Z,23.31
2019-02-26T11:51:17.705Z,23.82
2019-02-26T11:53:48.380Z,24.24
2019-02-26T11:56:20.732Z,24.66
2019-02-26T11:58:49.034Z,25.07
2019-02-26T12:01:18.735Z,25.35
2019-02-26T12:03:48.444Z,25.66
2019-02-26T12:06:17.896Z,26.13
2019-02-26T12:08:47.941Z,26.36
2019-02-26T12:11:20.416Z,26.69
2019-02-26T12:13:50.193Z,27.10
2019-02-26T12:16:22.667Z,27.58
2019-02-26T12:18:52.223Z,27.93
2019-02-26T12:21:21.672Z,28.30
2019-02-26T12:23:51.062Z,28.63
2019-02-26T12:26:22.222Z,28.92
2019-02-26T12:28:54.661Z,29.19
2019-02-26T12:31:25.313Z,29.44
2019-02-26T12:33:55.018Z,29.63
2019-02-26T12:36:26.481Z,29.92
2019-02-26T12:38:56.416Z,30.07
2019-02-26T12:41:26.685Z,30.35
2019-02-26T12:43:59.404Z,30.52
2019-02-26T12:46:28.244Z,30.71
2019-02-26T12:48:58.256Z,30.90
2019-02-26T12:51:31.178Z,31.05
2019-02-26T12:54:00.536Z,31.16
2019-02-26T12:56:32.949Z,31.28
2019-02-26T12:59:00.994Z,31.66
2019-02-26T13:01:33.112Z,31.66
2019-02-26T13:04:01.498Z,31.99
2019-02-26T13:06:30.857Z,31.99
2019-02-26T13:09:00.210Z,32.18
2019-02-26T13:11:29.627Z,32.35
2019-02-26T13:13:59.006Z,32.51
2019-02-26T13:16:31.007Z,32.55
2019-02-26T13:19:04.305Z,32.73
2019-02-26T13:21:31.626Z,32.79
2019-02-26T13:24:11.398Z,32.77
2019-02-26T13:26:36.222Z,32.83
2019-02-26T13:29:03.545Z,33.11
2019-02-26T13:31:35.902Z,33.26
2019-02-26T13:34:04.119Z,33.36
2019-02-26T13:36:36.340Z,33.56
2019-02-26T13:39:06.071Z,33.64
2019-02-26T13:41:39.054Z,33.87
2019-02-26T13:44:08.257Z,34.02
2019-02-26T13:46:37.919Z,34.13
2019-02-26T13:49:07.349Z,34.25
2019-02-26T13:51:36.741Z,34.23
2019-02-26T13:54:07.215Z,34.41
2019-02-26T13:56:36.692Z,34.39
2019-02-26T13:59:06.167Z,34.57
2019-02-26T14:01:35.590Z,34.67
2019-02-26T14:04:05.402Z,34.67
2019-02-26T14:06:34.760Z,34.67
2019-02-26T14:09:06.401Z,34.67
2019-02-26T14:11:37.376Z,34.60
2019-02-26T14:14:07.121Z,34.36
2019-02-26T14:16:36.523Z,34.31
2019-02-26T14:19:05.925Z,33.93
2019-02-26T14:21:35.369Z,33.66
2019-02-26T14:24:04.881Z,33.49
2019-02-26T14:26:34.767Z,33.26
2019-02-26T14:29:04.202Z,32.76
2019-02-26T14:31:33.639Z,32.22
2019-02-26T14:34:03.108Z,31.81
2019-02-26T14:36:32.479Z,31.44
2019-02-26T14:39:01.876Z,31.02
2019-02-26T14:41:32.873Z,30.68
2019-02-26T14:44:02.226Z,30.51
2019-02-26T14:46:31.713Z,30.19
2019-02-26T14:49:01.041Z,29.93
2019-02-26T14:51:30.473Z,29.58
2019-02-26T14:53:59.818Z,29.29
2019-02-26T14:56:29.291Z,29.01
2019-02-26T14:58:59.018Z,28.66
2019-02-26T15:01:28.444Z,28.33
2019-02-26T15:03:58.001Z,27.89
2019-02-26T15:06:27.357Z,27.48
2019-02-26T15:08:56.738Z,27.26
2019-02-26T15:11:26.104Z,26.89
2019-02-26T15:13:55.527Z,26.53
2019-02-26T15:16:24.869Z,26.23
2019-02-26T15:18:54.274Z,26.00
2019-02-26T15:21:23.705Z,25.70
2019-02-26T15:23:53.431Z,25.46
2019-02-26T15:26:22.854Z,25.20
2019-02-26T15:28:52.278Z,24.95
2019-02-26T15:31:22.007Z,24.68
2019-02-26T15:33:51.609Z,24.50
2019-02-26T15:36:21.325Z,24.30
2019-02-26T15:38:50.742Z,24.13
2019-02-26T15:41:20.105Z,23.95
2019-02-26T15:43:49.575Z,23.83
2019-02-26T15:46:18.990Z,23.74
2019-02-26T15:48:48.402Z,23.68
2019-02-26T15:51:20.121Z,23.62
2019-02-26T15:53:49.088Z,23.61
2019-02-26T15:56:18.466Z,23.59
2019-02-26T15:58:48.058Z,23.60
2019-02-26T16:01:17.450Z,23.59
2019-02-26T16:03:46.818Z,23.56
2019-02-26T16:06:16.450Z,23.49
2019-02-26T16:08:45.861Z,23.44
2019-02-26T16:11:15.192Z,23.41
2019-02-26T16:13:44.752Z,23.36
2019-02-26T16:16:14.102Z,23.26
2019-02-26T16:18:45.489Z,23.13
2019-02-26T16:21:18.618Z,22.97
2019-02-26T16:23:46.543Z,22.82
2019-02-26T16:26:16.297Z,22.69
2019-02-26T16:28:45.637Z,22.53
2019-02-26T16:31:15.057Z,22.34
2019-02-26T16:33:46.442Z,22.15
2019-02-26T16:36:15.626Z,21.98
2019-02-26T16:38:44.992Z,21.75
2019-02-26T16:41:14.362Z,21.51
2019-02-26T16:43:47.230Z,21.28
2019-02-26T16:46:16.500Z,21.06
2019-02-26T16:48:47.082Z,20.81
2019-02-26T16:51:16.630Z,20.57
2019-02-26T16:53:47.575Z,20.34
2019-02-26T16:56:17.190Z,20.08
2019-02-26T16:58:46.624Z,19.84
2019-02-26T17:01:16.147Z,19.41
2019-02-26T17:03:45.814Z,19.16
2019-02-26T17:06:15.512Z,18.81
2019-02-26T17:08:47.337Z,18.38
2019-02-26T17:11:15.951Z,18.17
2019-02-26T17:13:45.328Z,17.83
2019-02-26T17:16:15.010Z,17.53
2019-02-26T17:18:44.373Z,17.26
2019-02-26T17:21:13.723Z,16.98
2019-02-26T17:23:44.796Z,16.74
2019-02-26T17:26:14.195Z,16.49
2019-02-26T17:28:44.178Z,16.25
2019-02-26T17:31:13.600Z,15.98
2019-02-26T17:33:44.697Z,15.78
2019-02-26T17:36:16.705Z,15.60
2019-02-26T17:38:46.084Z,15.40
2019-02-26T17:41:15.505Z,15.19
2019-02-26T17:43:45.834Z,15.03
2019-02-26T17:46:15.244Z,14.86
2019-02-26T17:48:44.769Z,14.67
2019-02-26T17:51:14.106Z,14.52
2019-02-26T17:53:43.472Z,14.37
2019-02-26T17:56:13.057Z,14.21
2019-02-26T17:58:43.990Z,14.04
2019-02-26T18:01:13.503Z,13.94
2019-02-26T18:03:45.343Z,13.78
2019-02-26T18:06:13.874Z,13.63
2019-02-26T18:08:43.497Z,13.53
2019-02-26T18:11:12.859Z,13.43
2019-02-26T18:13:42.213Z,13.29
2019-02-26T18:16:11.571Z,13.18
2019-02-26T18:18:41.003Z,13.05
2019-02-26T18:21:10.356Z,12.92
2019-02-26T18:23:39.696Z,12.80
2019-02-26T18:26:09.062Z,12.70
2019-02-26T18:28:38.395Z,12.58
2019-02-26T18:31:07.972Z,12.46
2019-02-26T18:33:37.469Z,12.35
2019-02-26T18:36:06.824Z,12.23
2019-02-26T18:38:36.459Z,12.09
2019-02-26T18:41:06.020Z,11.99
2019-02-26T18:43:35.388Z,11.91
2019-02-26T18:46:04.724Z,11.77
2019-02-26T18:48:34.222Z,11.71
2019-02-26T18:51:03.805Z,11.65
2019-02-26T18:53:33.152Z,11.57
2019-02-26T18:56:04.309Z,11.42
2019-02-26T18:58:34.601Z,11.34
2019-02-26T19:01:03.955Z,11.26
2019-02-26T19:03:33.358Z,11.17
2019-02-26T19:06:03.621Z,11.10
2019-02-26T19:08:34.678Z,11.02
2019-02-26T19:11:04.589Z,10.97
2019-02-26T19:13:35.656Z,10.90
2019-02-26T19:16:05.146Z,10.80
2019-02-26T19:18:35.676Z,10.72
2019-02-26T19:21:05.490Z,10.64
2019-02-26T19:23:34.902Z,10.58
2019-02-26T19:26:04.241Z,10.51
2019-02-26T19:28:33.819Z,10.45
2019-02-26T19:31:03.143Z,10.37
2019-02-26T19:33:32.654Z,10.29
2019-02-26T19:36:01.985Z,10.22
2019-02-26T19:38:31.318Z,10.16
2019-02-26T19:41:12.372Z,10.11
2019-02-26T19:43:40.373Z,10.01
2019-02-26T19:46:09.692Z,9.95
2019-02-26T19:48:39.260Z,9.89
2019-02-26T19:51:08.595Z,9.82
2019-02-26T19:53:37.936Z,9.79
2019-02-26T19:56:07.263Z,9.72
2019-02-26T19:58:40.597Z,9.64
2019-02-26T20:01:07.634Z,9.57
2019-02-26T20:03:39.849Z,9.49
2019-02-26T20:06:08.001Z,9.44
2019-02-26T20:08:37.336Z,9.38
2019-02-26T20:11:06.665Z,9.34
2019-02-26T20:13:41.941Z,9.27
2019-02-26T20:16:07.275Z,9.20
2019-02-26T20:18:36.645Z,9.14
2019-02-26T20:21:05.981Z,9.08
2019-02-26T20:23:35.384Z,9.03
2019-02-26T20:26:04.710Z,8.98
2019-02-26T20:28:35.428Z,8.96
2019-02-26T20:31:05.295Z,8.92
2019-02-26T20:33:34.634Z,8.83
2019-02-26T20:36:03.966Z,8.78
2019-02-26T20:38:35.298Z,8.72
2019-02-26T20:41:04.857Z,8.66
2019-02-26T20:43:36.651Z,8.62
2019-02-26T20:46:05.270Z,8.53
2019-02-26T20:48:36.686Z,8.48
2019-02-26T20:51:05.627Z,8.41
2019-02-26T20:53:36.644Z,8.37
2019-02-26T20:56:05.972Z,8.32
2019-02-26T20:58:35.302Z,8.30
2019-02-26T21:01:04.637Z,8.26
2019-02-26T21:03:34.035Z,8.20
2019-02-26T21:06:03.432Z,8.14
2019-02-26T21:08:32.940Z,8.11
2019-02-26T21:11:02.272Z,8.05
2019-02-26T21:13:34.607Z,8.00
2019-02-26T21:16:02.628Z,7.95
2019-02-26T21:18:32.044Z,7.91
2019-02-26T21:21:01.623Z,7.87
2019-02-26T21:23:32.509Z,7.80
2019-02-26T21:26:01.879Z,7.73
2019-02-26T21:28:33.546Z,7.67
2019-02-26T21:31:02.329Z,7.66
2019-02-26T21:33:31.730Z,7.56
2019-02-26T21:36:01.090Z,7.54
2019-02-26T21:38:30.642Z,7.48
2019-02-26T21:40:59.978Z,7.46
2019-02-26T21:43:29.534Z,7.40
2019-02-26T21:45:58.889Z,7.33
2019-02-26T21:48:28.225Z,7.31
2019-02-26T21:50:57.557Z,7.27
2019-02-26T21:53:26.893Z,7.24
2019-02-26T21:55:56.229Z,7.19
2019-02-26T21:58:26.824Z,7.15
2019-02-26T22:00:56.732Z,7.11
2019-02-26T22:03:26.072Z,7.05
2019-02-26T22:05:55.394Z,7.03
2019-02-26T22:08:25.284Z,7.00
2019-02-26T22:10:54.530Z,6.99
2019-02-26T22:13:23.872Z,6.93
2019-02-26T22:15:53.200Z,6.90
2019-02-26T22:18:22.534Z,6.83
2019-02-26T22:20:51.864Z,6.77
2019-02-26T22:23:21.206Z,6.74
2019-02-26T22:25:52.546Z,6.72
2019-02-26T22:28:23.083Z,6.70
2019-02-26T22:30:55.716Z,6.65
2019-02-26T22:33:23.463Z,6.63
2019-02-26T22:35:52.796Z,6.57
2019-02-26T22:38:22.376Z,6.52
2019-02-26T22:40:51.702Z,6.48
2019-02-26T22:43:21.032Z,6.40
2019-02-26T22:45:50.638Z,6.35
2019-02-26T22:48:19.978Z,6.33
2019-02-26T22:50:49.528Z,6.35
2019-02-26T22:53:18.865Z,6.29
2019-02-26T22:55:49.804Z,6.25
2019-02-26T22:58:19.224Z,6.19
2019-02-26T23:01:13.757Z,6.15
2019-02-26T23:03:46.061Z,6.10
2019-02-26T23:06:16.021Z,6.07
2019-02-26T23:08:45.508Z,6.04
2019-02-26T23:11:15.175Z,6.01
2019-02-26T23:13:46.133Z,5.97
2019-02-26T23:16:18.538Z,5.93
2019-02-26T23:18:47.135Z,5.89
2019-02-26T23:21:16.871Z,5.86
2019-02-26T23:23:46.710Z,5.83
2019-02-26T23:26:16.210Z,5.84
2019-02-26T23:28:45.626Z,5.78
2019-02-26T23:31:16.873Z,5.74
2019-02-26T23:33:48.560Z,5.71
2019-02-26T23:36:17.329Z,5.66
2019-02-26T23:38:46.678Z,5.62
2019-02-26T23:41:16.276Z,5.60
2019-02-26T23:43:46.049Z,5.57
2019-02-26T23:46:15.395Z,5.52
2019-02-26T23:48:44.736Z,5.50
2019-02-26T23:51:14.063Z,5.53
2019-02-26T23:53:43.401Z,5.51
2019-02-26T23:56:12.781Z,5.47
2019-02-26T23:58:42.113Z,5.40
